Time;durP1;ratioP1;P1;durP2;ratioP2;P2;SDS_P1;SDS_P2;PMS_P1;PMS_P2;Temp;Humidity;BMP_temperature;BMP_pressure;BME280_temperature;BME280_humidity;BME280_pressure;Samples;Min_cycle;Max_cycle;Signal;HPM_P1;HPM_P2
2023/06/24 01:22:15;;;;;;;3.85;2.70;;;;;;;;;;4991352;23;20116;-78
2023/06/24 01:25:03;;;;;;;3.78;3.33;;;;;;;;;;4966499;28;20035;-78
2023/06/24 01:27:41;;;;;;;4.90;3.65;;;;;;;;;;4956057;28;20122;-77
2023/06/24 01:30:12;;;;;;;3.60;3.00;;;;;;;;;;4969052;28;20050;-78
2023/06/24 01:33:02;;;;;;;9.27;3.88;;;;;;;;;;4978196;28;20030;-77
2023/06/24 01:35:32;;;;;;;5.00;3.75;;;;;;;;;;4979812;28;20113;-78
2023/06/24 01:38:01;;;;;;;5.47;3.83;;;;;;;;;;4982287;28;20019;-78
2023/06/24 01:40:30;;;;;;;3.92;3.05;;;;;;;;;;4976837;28;20019;-78
2023/06/24 01:42:58;;;;;;;3.20;2.90;;;;;;;;;;4981213;28;20046;-77
2023/06/24 01:45:27;;;;;;;3.65;3.33;;;;;;;;;;4975973;28;20705;-78
2023/06/24 01:48:08;;;;;;;3.25;2.80;;;;;;;;;;4979071;28;20030;-78
2023/06/24 01:50:35;;;;;;;;;;;;;;;;;;4971729;28;20030;-78
2023/06/24 01:53:05;;;;;;;2.88;2.28;;;;;;;;;;4980328;28;19914;-77
2023/06/24 01:55:33;;;;;;;2.95;2.65;;;;;;;;;;4977532;28;20022;-78
2023/06/24 01:57:59;;;;;;;3.40;2.60;;;;;;;;;;4975918;28;20538;-78
2023/06/24 02:00:26;;;;;;;2.92;2.58;;;;;;;;;;4984839;28;20089;-77
2023/06/24 02:02:53;;;;;;;4.35;2.78;;;;;;;;;;4979340;28;20026;-78
2023/06/24 02:05:20;;;;;;;3.60;2.70;;;;;;;;;;4976123;28;20018;-77
2023/06/24 02:07:49;;;;;;;3.20;2.90;;;;;;;;;;4967337;28;20031;-78
2023/06/24 02:10:15;;;;;;;3.03;2.72;;;;;;;;;;4977749;28;20026;-78
2023/06/24 02:12:43;;;;;;;3.47;3.15;;;;;;;;;;4981443;28;20019;-78
2023/06/24 02:15:09;;;;;;;4.07;2.95;;;;;;;;;;4976772;28;20031;-77
2023/06/24 02:17:36;;;;;;;3.97;2.50;;;;;;;;;;4971127;28;20084;-77
2023/06/24 02:20:05;;;;;;;3.47;3.05;;;;;;;;;;4977211;28;20037;-78
2023/06/24 02:22:31;;;;;;;3.35;2.90;;;;;;;;;;4971507;28;20050;-77
2023/06/24 02:24:57;;;;;;;3.47;3.03;;;;;;;;;;4973555;28;20430;-77
2023/06/24 02:27:23;;;;;;;3.65;3.05;;;;;;;;;;4969284;28;20022;-78
2023/06/24 02:29:50;;;;;;;4.75;2.80;;;;;;;;;;4974526;28;20466;-77
2023/06/24 02:32:16;;;;;;;4.22;3.00;;;;;;;;;;4969382;28;20030;-78
2023/06/24 02:34:41;;;;;;;2.67;2.47;;;;;;;;;;4973518;28;20023;-78
2023/06/24 02:37:07;;;;;;;5.28;3.20;;;;;;;;;;4970896;28;20558;-78
2023/06/24 02:39:32;;;;;;;3.15;2.60;;;;;;;;;;4974805;28;20030;-78
2023/06/24 02:41:58;;;;;;;2.88;2.58;;;;;;;;;;4976674;28;20070;-77
2023/06/24 02:44:23;;;;;;;2.97;2.67;;;;;;;;;;4974125;28;20058;-78
2023/06/24 02:46:50;;;;;;;2.60;2.40;;;;;;;;;;4978838;28;20530;-78
2023/06/24 02:49:18;;;;;;;3.20;2.38;;;;;;;;;;4965517;28;20037;-77
2023/06/24 02:51:44;;;;;;;2.63;2.42;;;;;;;;;;4958620;28;20023;-78
2023/06/24 02:54:11;;;;;;;3.17;2.47;;;;;;;;;;4975875;28;20022;-77
2023/06/24 02:56:43;;;;;;;3.08;2.28;;;;;;;;;;4973706;28;20054;-77
2023/06/24 02:59:09;;;;;;;2.63;2.38;;;;;;;;;;4970671;28;20053;-77
2023/06/24 03:01:38;;;;;;;3.05;2.28;;;;;;;;;;4973161;28;20035;-77
2023/06/24 03:04:04;;;;;;;3.90;2.63;;;;;;;;;;4970763;28;20112;-77
2023/06/24 03:06:31;;;;;;;2.92;2.35;;;;;;;;;;4967345;28;20724;-77
2023/06/24 03:08:57;;;;;;;2.92;2.30;;;;;;;;;;4968485;28;20026;-77
2023/06/24 03:11:23;;;;;;;4.43;2.95;;;;;;;;;;4975996;28;20022;-78
2023/06/24 03:13:48;;;;;;;3.58;2.42;;;;;;;;;;4974439;28;20018;-77
2023/06/24 03:16:14;;;;;;;3.45;2.95;;;;;;;;;;4981328;28;20100;-78
2023/06/24 03:18:41;;;;;;;3.30;2.60;;;;;;;;;;4971382;28;20119;-77
2023/06/24 03:21:07;;;;;;;3.20;2.55;;;;;;;;;;4969439;28;20037;-77
2023/06/24 03:23:32;;;;;;;4.13;3.00;;;;;;;;;;4977437;28;20027;-77
2023/06/24 03:25:57;;;;;;;2.80;2.50;;;;;;;;;;4969560;28;20031;-78
2023/06/24 03:28:23;;;;;;;2.58;2.38;;;;;;;;;;4968487;28;20502;-79
2023/06/24 03:30:48;;;;;;;3.58;2.58;;;;;;;;;;4972781;28;20029;-78
2023/06/24 03:33:16;;;;;;;2.80;2.58;;;;;;;;;;4976605;28;20034;-77
2023/06/24 03:35:45;;;;;;;3.88;2.60;;;;;;;;;;4973602;28;20028;-78
2023/06/24 03:38:11;;;;;;;2.90;2.65;;;;;;;;;;4971894;28;20691;-78
2023/06/24 03:40:37;;;;;;;3.53;2.40;;;;;;;;;;4978985;28;20871;-78
2023/06/24 03:43:02;;;;;;;3.97;3.10;;;;;;;;;;4973899;28;20023;-77
2023/06/24 03:45:28;;;;;;;3.38;2.90;;;;;;;;;;4987571;28;20034;-77
2023/06/24 03:47:53;;;;;;;5.55;2.95;;;;;;;;;;4970636;28;20047;-77
2023/06/24 03:50:19;;;;;;;3.05;2.50;;;;;;;;;;4968457;28;20483;-78
2023/06/24 03:52:44;;;;;;;2.95;2.60;;;;;;;;;;4965808;28;20053;-78
2023/06/24 03:55:10;;;;;;;3.55;2.58;;;;;;;;;;4963416;28;20106;-78
2023/06/24 03:57:36;;;;;;;3.55;2.83;;;;;;;;;;4972116;28;20019;-78
2023/06/24 04:00:07;;;;;;;6.57;3.80;;;;;;;;;;4964072;28;20046;-77
2023/06/24 04:02:36;;;;;;;4.45;3.40;;;;;;;;;;4980088;28;20037;-78
2023/06/24 04:05:01;;;;;;;5.82;4.30;;;;;;;;;;4980068;28;20019;-76
2023/06/24 04:07:27;;;;;;;5.82;4.32;;;;;;;;;;4981480;28;20170;-78
2023/06/24 04:09:56;;;;;;;3.45;3.10;;;;;;;;;;4979103;28;20019;-79
2023/06/24 04:12:22;;;;;;;3.95;3.10;;;;;;;;;;4976647;28;20399;-79
2023/06/24 04:14:47;;;;;;;5.47;4.20;;;;;;;;;;4982705;28;20026;-79
2023/06/24 04:17:12;;;;;;;5.38;3.90;;;;;;;;;;4979921;28;20026;-78
2023/06/24 04:19:39;;;;;;;4.35;3.55;;;;;;;;;;4975086;28;20026;-78
2023/06/24 04:22:04;;;;;;;6.22;3.92;;;;;;;;;;4982329;28;20042;-78
2023/06/24 04:24:30;;;;;;;6.50;3.58;;;;;;;;;;4978687;28;20023;-79
2023/06/24 04:26:55;;;;;;;4.35;3.70;;;;;;;;;;4984528;28;20082;-79
2023/06/24 04:29:21;;;;;;;5.75;4.28;;;;;;;;;;4981507;28;20028;-78
2023/06/24 04:31:46;;;;;;;4.80;3.28;;;;;;;;;;4979582;28;20023;-78
2023/06/24 04:34:11;;;;;;;7.40;4.53;;;;;;;;;;4974006;28;20055;-79
2023/06/24 04:36:38;;;;;;;4.32;3.53;;;;;;;;;;4979937;28;20496;-78
2023/06/24 04:39:04;;;;;;;4.65;3.10;;;;;;;;;;4975036;28;20515;-79
2023/06/24 04:41:29;;;;;;;8.40;3.80;;;;;;;;;;4973059;28;20031;-78
2023/06/24 04:43:55;;;;;;;5.75;3.72;;;;;;;;;;4980482;28;20030;-78
2023/06/24 04:46:21;;;;;;;3.78;3.00;;;;;;;;;;4971310;28;20026;-79
2023/06/24 04:48:47;;;;;;;3.63;3.00;;;;;;;;;;4976539;28;20027;-78
2023/06/24 04:51:12;;;;;;;4.63;3.30;;;;;;;;;;4974755;28;20475;-79
2023/06/24 04:53:37;;;;;;;4.18;3.40;;;;;;;;;;4993745;28;20034;-80
2023/06/24 04:56:03;;;;;;;5.55;3.22;;;;;;;;;;4992693;28;20035;-80
2023/06/24 04:58:28;;;;;;;3.75;2.90;;;;;;;;;;4989889;28;20019;-80
2023/06/24 05:00:54;;;;;;;5.13;4.00;;;;;;;;;;4993820;28;20104;-80
2023/06/24 05:03:19;;;;;;;5.18;3.58;;;;;;;;;;4991292;28;20451;-80
2023/06/24 05:05:44;;;;;;;5.28;4.13;;;;;;;;;;4984527;28;20090;-80
2023/06/24 05:08:10;;;;;;;6.63;4.03;;;;;;;;;;4980967;28;20093;-79
2023/06/24 05:10:35;;;;;;;5.20;3.72;;;;;;;;;;4987642;28;20026;-79
2023/06/24 05:13:01;;;;;;;7.07;3.83;;;;;;;;;;4989104;28;20022;-79
2023/06/24 05:15:26;;;;;;;6.95;3.83;;;;;;;;;;4984804;28;20046;-79
2023/06/24 05:17:51;;;;;;;5.25;3.25;;;;;;;;;;4981766;28;20037;-79
2023/06/24 05:20:17;;;;;;;6.72;4.07;;;;;;;;;;4989425;28;20022;-78
2023/06/24 05:22:43;;;;;;;5.22;3.78;;;;;;;;;;5003334;28;20027;-78
2023/06/24 05:25:09;;;;;;;5.93;3.90;;;;;;;;;;4995699;28;20023;-78
2023/06/24 05:27:34;;;;;;;7.18;4.13;;;;;;;;;;4991174;28;20108;-78
2023/06/24 05:29:59;;;;;;;7.78;4.32;;;;;;;;;;4993842;23;20502;-76
2023/06/24 05:32:25;;;;;;;6.95;3.85;;;;;;;;;;4974250;28;20055;-76
2023/06/24 05:34:50;;;;;;;8.27;4.40;;;;;;;;;;4966937;28;20027;-76
2023/06/24 05:37:16;;;;;;;7.82;4.28;;;;;;;;;;4967857;28;20030;-75
2023/06/24 05:39:41;;;;;;;6.80;3.90;;;;;;;;;;4970306;28;20472;-76
2023/06/24 05:42:07;;;;;;;6.63;4.10;;;;;;;;;;4951989;28;20487;-76
2023/06/24 05:44:33;;;;;;;7.78;4.43;;;;;;;;;;4952778;28;20059;-76
2023/06/24 05:46:59;;;;;;;8.25;4.28;;;;;;;;;;4955699;28;20019;-76
2023/06/24 05:49:24;;;;;;;4.80;4.10;;;;;;;;;;4955687;28;20396;-76
2023/06/24 05:51:49;;;;;;;6.10;4.20;;;;;;;;;;4955107;28;20099;-75
2023/06/24 05:54:15;;;;;;;5.15;3.97;;;;;;;;;;4949953;28;20498;-75
2023/06/24 05:56:40;;;;;;;7.53;4.60;;;;;;;;;;4955731;28;20023;-76
2023/06/24 05:59:06;;;;;;;5.45;3.90;;;;;;;;;;4950117;28;20114;-76
2023/06/24 06:01:32;;;;;;;4.80;4.07;;;;;;;;;;4952979;28;20472;-76
2023/06/24 06:03:57;;;;;;;5.70;3.58;;;;;;;;;;4956517;28;20046;-76
2023/06/24 06:06:22;;;;;;;6.35;4.22;;;;;;;;;;4954224;28;20038;-75
2023/06/24 06:08:48;;;;;;;5.70;4.38;;;;;;;;;;4955312;28;20468;-75
2023/06/24 06:11:13;;;;;;;6.00;4.10;;;;;;;;;;4958298;28;20027;-76
2023/06/24 06:13:38;;;;;;;3.40;2.80;;;;;;;;;;4955099;28;20515;-76
2023/06/24 06:16:04;;;;;;;6.13;4.20;;;;;;;;;;4952480;28;20039;-76
2023/06/24 06:18:29;;;;;;;4.45;3.85;;;;;;;;;;4976263;28;20106;-76
2023/06/24 06:20:55;;;;;;;5.85;3.97;;;;;;;;;;4959224;28;20022;-77
2023/06/24 06:23:20;;;;;;;6.82;4.15;;;;;;;;;;4956843;28;20064;-77
2023/06/24 06:25:46;;;;;;;6.05;3.92;;;;;;;;;;4954186;28;20031;-77
2023/06/24 06:28:11;;;;;;;4.65;3.92;;;;;;;;;;4953802;28;20472;-77
2023/06/24 06:30:37;;;;;;;4.70;3.50;;;;;;;;;;4962046;28;20534;-77
2023/06/24 06:33:02;;;;;;;3.17;2.75;;;;;;;;;;4959135;28;20392;-77
2023/06/24 06:35:28;;;;;;;4.50;3.85;;;;;;;;;;4955771;28;20042;-76
2023/06/24 06:37:54;;;;;;;8.65;4.88;;;;;;;;;;4953282;28;20117;-77
2023/06/24 06:40:20;;;;;;;3.15;2.63;;;;;;;;;;4952999;28;20027;-76
2023/06/24 06:42:46;;;;;;;5.25;3.60;;;;;;;;;;4960337;28;20133;-77
2023/06/24 06:45:11;;;;;;;2.40;2.20;;;;;;;;;;4941981;28;20130;-77
2023/06/24 06:47:36;;;;;;;3.70;3.35;;;;;;;;;;4952502;28;20053;-77
2023/06/24 06:50:02;;;;;;;3.60;2.80;;;;;;;;;;4953334;28;20038;-76
2023/06/24 06:52:28;;;;;;;4.55;2.80;;;;;;;;;;4943418;28;20506;-76
2023/06/24 06:54:54;;;;;;;2.83;2.63;;;;;;;;;;4958932;28;20031;-76
2023/06/24 06:57:19;;;;;;;2.60;2.40;;;;;;;;;;4959368;28;20598;-76
2023/06/24 06:59:45;;;;;;;2.53;2.33;;;;;;;;;;4954225;28;20040;-76
2023/06/24 07:02:10;;;;;;;5.93;2.90;;;;;;;;;;4951389;28;20031;-76
2023/06/24 07:04:35;;;;;;;3.20;2.80;;;;;;;;;;4956767;28;20035;-76
2023/06/24 07:07:01;;;;;;;2.90;2.58;;;;;;;;;;4959470;28;20026;-76
2023/06/24 07:09:26;;;;;;;3.70;2.60;;;;;;;;;;4957940;28;20035;-76
2023/06/24 07:11:51;;;;;;;3.10;2.80;;;;;;;;;;4954535;28;20031;-76
2023/06/24 07:14:17;;;;;;;3.22;2.75;;;;;;;;;;4959607;28;20616;-77
2023/06/24 07:16:42;;;;;;;2.60;2.40;;;;;;;;;;4963277;28;20031;-77
2023/06/24 07:19:08;;;;;;;3.65;2.55;;;;;;;;;;4953550;28;20455;-77
2023/06/24 07:21:33;;;;;;;3.15;2.45;;;;;;;;;;4957976;28;20081;-77
2023/06/24 07:23:58;;;;;;;4.45;2.63;;;;;;;;;;4957661;28;20094;-76
2023/06/24 07:26:24;;;;;;;2.80;2.30;;;;;;;;;;4953519;28;20028;-76
2023/06/24 07:28:49;;;;;;;4.15;2.58;;;;;;;;;;4955894;28;20027;-76
2023/06/24 07:31:15;;;;;;;3.22;2.30;;;;;;;;;;4956045;28;20503;-75
2023/06/24 07:33:40;;;;;;;3.03;2.50;;;;;;;;;;4963996;28;20030;-75
2023/06/24 07:36:05;;;;;;;4.35;2.60;;;;;;;;;;4956054;28;20038;-75
2023/06/24 07:38:31;;;;;;;2.85;2.55;;;;;;;;;;4958497;28;20046;-75
2023/06/24 07:40:56;;;;;;;4.53;2.70;;;;;;;;;;4955858;28;20479;-75
2023/06/24 07:43:21;;;;;;;4.55;2.65;;;;;;;;;;4959121;28;20490;-76
2023/06/24 07:45:47;;;;;;;3.03;2.40;;;;;;;;;;4958674;28;20089;-75
2023/06/24 07:48:12;;;;;;;2.42;2.22;;;;;;;;;;4962136;28;20110;-75
2023/06/24 07:50:38;;;;;;;3.33;2.60;;;;;;;;;;4961255;28;20035;-75
2023/06/24 07:53:04;;;;;;;3.08;2.00;;;;;;;;;;4957489;28;20106;-74
2023/06/24 07:55:29;;;;;;;2.40;2.20;;;;;;;;;;4961704;28;20110;-75
2023/06/24 07:57:55;;;;;;;2.85;2.22;;;;;;;;;;4961535;28;20031;-74
2023/06/24 08:00:20;;;;;;;3.55;2.45;;;;;;;;;;4967209;28;20022;-76
2023/06/24 08:02:46;;;;;;;2.58;2.38;;;;;;;;;;4964530;28;20548;-76
2023/06/24 08:05:11;;;;;;;2.40;2.20;;;;;;;;;;4962336;28;20018;-76
2023/06/24 08:07:37;;;;;;;2.58;2.38;;;;;;;;;;4962634;28;20069;-74
2023/06/24 08:10:04;;;;;;;2.72;2.53;;;;;;;;;;4968058;28;20034;-75
2023/06/24 08:12:29;;;;;;;2.92;2.20;;;;;;;;;;4966211;28;20035;-74
2023/06/24 08:14:54;;;;;;;3.35;2.40;;;;;;;;;;4956931;28;20030;-74
2023/06/24 08:17:20;;;;;;;2.60;2.40;;;;;;;;;;4966245;28;20026;-76
2023/06/24 08:19:45;;;;;;;2.70;2.28;;;;;;;;;;4965549;28;20036;-76
2023/06/24 08:22:10;;;;;;;3.60;2.17;;;;;;;;;;4965258;28;20019;-76
2023/06/24 08:24:36;;;;;;;2.40;2.17;;;;;;;;;;4963553;28;20464;-76
2023/06/24 08:27:02;;;;;;;2.85;2.65;;;;;;;;;;4962125;28;20094;-76
2023/06/24 08:29:28;;;;;;;2.75;2.22;;;;;;;;;;4960498;28;20097;-75
2023/06/24 08:31:53;;;;;;;2.33;1.98;;;;;;;;;;4960323;28;20022;-75
2023/06/24 08:34:18;;;;;;;3.50;2.65;;;;;;;;;;4964878;28;20035;-76
2023/06/24 08:36:44;;;;;;;3.40;2.70;;;;;;;;;;4963363;28;20388;-76
2023/06/24 08:39:09;;;;;;;2.90;2.38;;;;;;;;;;4964858;28;20019;-75
2023/06/24 08:41:34;;;;;;;2.63;2.10;;;;;;;;;;4963117;28;20023;-76
2023/06/24 08:44:00;;;;;;;2.30;2.10;;;;;;;;;;4959495;28;20023;-75
2023/06/24 08:46:26;;;;;;;4.20;2.63;;;;;;;;;;4959951;28;20031;-76
2023/06/24 08:49:02;;;;;;;2.38;2.03;;;;;;;;;;4960948;28;20029;-75
2023/06/24 08:51:31;;;;;;;3.22;2.60;;;;;;;;;;4958615;28;20109;-76
2023/06/24 08:53:58;;;;;;;4.43;2.55;;;;;;;;;;4962154;28;20015;-75
2023/06/24 08:56:23;;;;;;;2.42;2.22;;;;;;;;;;4962789;28;20027;-75
2023/06/24 08:58:49;;;;;;;2.28;1.90;;;;;;;;;;4961174;28;20120;-76
2023/06/24 09:01:14;;;;;;;2.92;2.65;;;;;;;;;;4960011;28;20480;-75
2023/06/24 09:03:39;;;;;;;2.67;2.25;;;;;;;;;;4962487;28;20030;-77
2023/06/24 09:06:05;;;;;;;3.22;2.55;;;;;;;;;;4963191;28;20496;-76
2023/06/24 09:08:31;;;;;;;3.83;2.78;;;;;;;;;;4958284;28;20097;-75
2023/06/24 09:10:56;;;;;;;3.40;2.70;;;;;;;;;;4959796;28;20027;-76
2023/06/24 09:13:33;;;;;;;4.28;2.65;;;;;;;;;;4958666;28;20034;-77
2023/06/24 09:15:59;;;;;;;3.13;2.53;;;;;;;;;;4960355;28;20043;-77
2023/06/24 09:18:31;;;;;;;3.13;2.60;;;;;;;;;;4961777;28;20030;-76
2023/06/24 09:20:57;;;;;;;3.10;2.78;;;;;;;;;;4959370;28;20023;-76
2023/06/24 09:23:26;;;;;;;3.20;2.90;;;;;;;;;;4958320;28;20011;-76
2023/06/24 09:25:58;;;;;;;2.70;2.47;;;;;;;;;;4957899;28;20026;-76
2023/06/24 09:28:27;;;;;;;2.92;2.45;;;;;;;;;;4960117;28;20531;-77
2023/06/24 09:31:06;;;;;;;2.50;2.30;;;;;;;;;;4955327;28;20143;-76
2023/06/24 09:33:32;;;;;;;2.75;1.95;;;;;;;;;;4961100;28;20499;-77
2023/06/24 09:35:57;;;;;;;1.88;1.75;;;;;;;;;;4955512;28;20116;-76
2023/06/24 09:38:32;;;;;;;2.60;2.40;;;;;;;;;;4955768;28;20590;-77
2023/06/24 09:41:05;;;;;;;3.75;2.72;;;;;;;;;;4960840;28;20439;-75
2023/06/24 09:43:37;;;;;;;2.75;2.55;;;;;;;;;;4959898;28;20930;-77
2023/06/24 09:46:04;;;;;;;2.78;2.08;;;;;;;;;;4959802;28;20043;-76
2023/06/24 09:48:29;;;;;;;2.17;2.00;;;;;;;;;;4954967;28;20034;-76
2023/06/24 09:51:02;;;;;;;7.85;2.78;;;;;;;;;;4957790;28;20027;-76
2023/06/24 09:53:33;;;;;;;5.07;2.28;;;;;;;;;;4957832;28;20035;-76
2023/06/24 09:56:01;;;;;;;2.92;2.70;;;;;;;;;;4955904;28;20031;-76
2023/06/24 09:58:28;;;;;;;3.20;2.90;;;;;;;;;;4958514;28;20021;-77
2023/06/24 10:00:54;;;;;;;4.10;3.22;;;;;;;;;;4956803;28;20038;-77
2023/06/24 10:03:19;;;;;;;2.78;2.50;;;;;;;;;;4958874;28;20035;-76
2023/06/24 10:05:45;;;;;;;2.38;2.17;;;;;;;;;;4958619;28;20034;-77
2023/06/24 10:08:13;;;;;;;3.80;2.53;;;;;;;;;;4958680;28;20081;-77
2023/06/24 10:10:39;;;;;;;4.72;3.10;;;;;;;;;;4955802;28;20027;-77
2023/06/24 10:13:04;;;;;;;2.17;1.98;;;;;;;;;;4957018;28;20093;-77
2023/06/24 10:15:30;;;;;;;3.42;2.88;;;;;;;;;;4959541;28;20043;-77
2023/06/24 10:17:55;;;;;;;2.47;2.17;;;;;;;;;;4956358;28;20101;-78
2023/06/24 10:20:27;;;;;;;4.05;2.80;;;;;;;;;;4956738;28;20074;-77
2023/06/24 10:22:53;;;;;;;4.25;2.90;;;;;;;;;;4958826;28;20027;-77
2023/06/24 10:25:18;;;;;;;2.40;2.00;;;;;;;;;;4953735;28;20594;-77
2023/06/24 10:27:44;;;;;;;2.95;2.65;;;;;;;;;;4957706;28;20546;-77
2023/06/24 10:30:19;;;;;;;2.85;2.63;;;;;;;;;;4954398;28;20030;-78
2023/06/24 10:32:45;;;;;;;3.05;2.50;;;;;;;;;;4956654;28;20059;-77
2023/06/24 10:35:41;;;;;;;2.40;2.20;;;;;;;;;;4956887;28;20022;-77
2023/06/24 10:38:10;;;;;;;2.85;2.53;;;;;;;;;;4956989;28;20115;-77
2023/06/24 10:40:37;;;;;;;3.65;2.50;;;;;;;;;;4956158;28;20073;-77
2023/06/24 10:43:22;;;;;;;2.33;2.13;;;;;;;;;;4957215;28;20027;-76
2023/06/24 10:45:52;;;;;;;2.50;2.03;;;;;;;;;;4957240;28;20492;-77
2023/06/24 10:48:19;;;;;;;2.53;2.33;;;;;;;;;;4955746;28;20123;-77
2023/06/24 10:50:45;;;;;;;2.10;2.00;;;;;;;;;;4944525;28;20035;-76
2023/06/24 10:53:12;;;;;;;2.83;2.15;;;;;;;;;;4958828;28;20019;-77
2023/06/24 10:55:39;;;;;;;2.35;2.15;;;;;;;;;;4960042;28;20471;-76
2023/06/24 10:58:12;;;;;;;3.08;2.55;;;;;;;;;;4959804;28;20031;-77
2023/06/24 11:00:38;;;;;;;3.10;2.90;;;;;;;;;;4958453;28;20491;-76
2023/06/24 11:03:26;;;;;;;4.28;2.40;;;;;;;;;;4960118;28;21475;-77
2023/06/24 11:05:51;;;;;;;3.67;2.50;;;;;;;;;;4954875;28;20037;-77
2023/06/24 11:08:16;;;;;;;2.70;2.42;;;;;;;;;;4958738;28;20023;-77
2023/06/24 11:10:46;;;;;;;2.70;2.50;;;;;;;;;;4956536;28;20102;-77
2023/06/24 11:13:12;;;;;;;2.13;1.92;;;;;;;;;;4954051;28;20483;-77
2023/06/24 11:15:40;;;;;;;2.10;2.00;;;;;;;;;;4955220;28;20073;-77
2023/06/24 11:18:08;;;;;;;2.97;2.22;;;;;;;;;;4955550;28;20027;-77
2023/06/24 11:20:35;;;;;;;2.30;2.10;;;;;;;;;;4957360;28;20392;-77
2023/06/24 11:23:00;;;;;;;2.22;2.08;;;;;;;;;;4956075;28;20029;-77
2023/06/24 11:25:26;;;;;;;2.78;2.20;;;;;;;;;;4959727;28;20019;-76
2023/06/24 11:27:54;;;;;;;2.00;1.90;;;;;;;;;;4955300;28;20047;-77
2023/06/24 11:30:21;;;;;;;2.97;2.30;;;;;;;;;;4964974;23;20110;-77
2023/06/24 11:32:48;;;;;;;2.58;2.38;;;;;;;;;;4938269;28;20027;-77
2023/06/24 11:35:15;;;;;;;2.72;2.13;;;;;;;;;;4939936;28;20027;-77
2023/06/24 11:37:46;;;;;;;3.63;2.25;;;;;;;;;;4946707;28;20033;-77
2023/06/24 11:40:13;;;;;;;1.70;1.60;;;;;;;;;;4943639;28;21362;-77
2023/06/24 11:42:40;;;;;;;1.95;1.77;;;;;;;;;;4944438;28;20019;-77
2023/06/24 11:45:07;;;;;;;2.10;1.90;;;;;;;;;;4916537;28;20444;-77
2023/06/24 11:47:34;;;;;;;3.15;2.17;;;;;;;;;;4939618;28;20170;-77
2023/06/24 11:50:02;;;;;;;1.73;1.63;;;;;;;;;;4943357;28;20110;-77
2023/06/24 11:52:41;;;;;;;2.58;2.00;;;;;;;;;;4940999;28;20023;-77
2023/06/24 11:55:20;;;;;;;2.30;1.88;;;;;;;;;;4943672;28;20023;-76
2023/06/24 11:58:01;;;;;;;1.90;1.70;;;;;;;;;;4944019;28;20093;-77
2023/06/24 12:00:31;;;;;;;2.78;2.22;;;;;;;;;;4940934;28;20031;-77
2023/06/24 12:02:57;;;;;;;;;;;;;;;;;;4941431;28;20024;-75
2023/06/24 12:05:26;;;;;;;2.35;2.15;;;;;;;;;;4937879;28;19937;-77
2023/06/24 12:07:55;;;;;;;2.63;2.42;;;;;;;;;;4940366;28;20035;-77
2023/06/24 12:10:21;;;;;;;2.00;1.63;;;;;;;;;;4939130;28;20487;-77
2023/06/24 12:12:46;;;;;;;2.53;2.30;;;;;;;;;;4943658;28;20536;-77
2023/06/24 12:15:11;;;;;;;3.08;2.05;;;;;;;;;;4941301;28;20400;-77
2023/06/24 12:17:38;;;;;;;2.33;2.17;;;;;;;;;;4938421;28;20027;-77
2023/06/24 12:20:04;;;;;;;2.40;1.98;;;;;;;;;;4939279;28;20118;-77
2023/06/24 12:22:29;;;;;;;3.20;1.88;;;;;;;;;;4938144;28;20159;-77
2023/06/24 12:24:54;;;;;;;3.13;2.17;;;;;;;;;;4941283;28;20113;-77
2023/06/24 12:27:20;;;;;;;2.40;2.20;;;;;;;;;;4947037;28;20034;-77
2023/06/24 12:29:45;;;;;;;2.10;1.90;;;;;;;;;;4942663;28;20476;-77
2023/06/24 12:32:10;;;;;;;2.42;2.22;;;;;;;;;;4941384;28;20027;-77
2023/06/24 12:34:36;;;;;;;2.13;1.90;;;;;;;;;;4944063;28;20038;-77
2023/06/24 12:37:01;;;;;;;2.60;2.00;;;;;;;;;;4941669;28;20558;-77
2023/06/24 12:39:27;;;;;;;2.75;1.98;;;;;;;;;;4941517;28;20023;-77
2023/06/24 12:41:52;;;;;;;2.10;1.90;;;;;;;;;;4947643;28;20528;-77
2023/06/24 12:44:17;;;;;;;3.05;2.75;;;;;;;;;;4943773;28;20023;-77
2023/06/24 12:46:43;;;;;;;3.55;2.53;;;;;;;;;;4942545;28;20034;-77
2023/06/24 12:49:08;;;;;;;3.10;2.70;;;;;;;;;;4943863;28;20147;-77
2023/06/24 12:51:33;;;;;;;3.85;2.40;;;;;;;;;;4946577;28;20033;-77
2023/06/24 12:53:59;;;;;;;2.83;2.35;;;;;;;;;;4947535;28;20114;-77
2023/06/24 12:56:24;;;;;;;2.28;2.15;;;;;;;;;;4945248;28;20027;-77
2023/06/24 12:58:49;;;;;;;3.55;2.20;;;;;;;;;;4944943;28;20035;-77
2023/06/24 13:01:15;;;;;;;3.05;2.70;;;;;;;;;;4942673;28;20318;-77
2023/06/24 13:03:40;;;;;;;2.78;2.38;;;;;;;;;;4944861;28;20022;-77
2023/06/24 13:06:05;;;;;;;2.65;2.40;;;;;;;;;;4941595;28;20081;-77
2023/06/24 13:08:31;;;;;;;2.97;2.10;;;;;;;;;;4946641;28;20035;-75
2023/06/24 13:10:56;;;;;;;2.88;2.53;;;;;;;;;;4944923;28;20510;-76
2023/06/24 13:13:22;;;;;;;3.40;3.10;;;;;;;;;;4948790;28;20114;-76
2023/06/24 13:15:47;;;;;;;4.25;3.20;;;;;;;;;;4944223;28;20035;-75
2023/06/24 13:18:13;;;;;;;2.47;2.28;;;;;;;;;;4946263;28;20030;-75
2023/06/24 13:20:38;;;;;;;1.90;1.80;;;;;;;;;;4945427;28;20031;-76
2023/06/24 13:23:03;;;;;;;4.60;2.58;;;;;;;;;;4944084;28;20525;-75
2023/06/24 13:25:29;;;;;;;3.47;3.17;;;;;;;;;;4949306;28;20110;-76
2023/06/24 13:27:54;;;;;;;2.10;1.95;;;;;;;;;;4944096;28;20031;-75
2023/06/24 13:30:21;;;;;;;1.98;1.80;;;;;;;;;;4945676;28;20063;-76
2023/06/24 13:32:48;;;;;;;2.40;2.20;;;;;;;;;;4945352;28;20025;-76
2023/06/24 13:35:13;;;;;;;3.58;3.28;;;;;;;;;;4949133;28;20393;-76
2023/06/24 13:37:39;;;;;;;2.47;2.28;;;;;;;;;;4942420;28;20023;-76
2023/06/24 13:40:06;;;;;;;4.63;3.17;;;;;;;;;;4942777;28;20706;-76
2023/06/24 13:42:31;;;;;;;4.25;3.05;;;;;;;;;;4940541;28;20143;-76
2023/06/24 13:44:57;;;;;;;2.53;2.33;;;;;;;;;;4939759;28;20031;-76
2023/06/24 13:47:22;;;;;;;2.90;2.70;;;;;;;;;;4947271;28;20506;-78
2023/06/24 13:49:48;;;;;;;2.70;2.50;;;;;;;;;;4925815;28;20028;-78
2023/06/24 13:52:13;;;;;;;3.50;3.20;;;;;;;;;;4942355;28;20023;-77
2023/06/24 13:54:39;;;;;;;2.95;2.65;;;;;;;;;;4945654;28;20082;-77
2023/06/24 13:57:04;;;;;;;2.28;2.15;;;;;;;;;;4944859;28;20031;-78
2023/06/24 13:59:29;;;;;;;2.65;2.45;;;;;;;;;;4948398;28;20059;-77
2023/06/24 14:01:55;;;;;;;3.53;3.22;;;;;;;;;;4959789;28;20023;-77
2023/06/24 14:04:20;;;;;;;3.20;2.90;;;;;;;;;;4952371;28;20034;-78
2023/06/24 14:06:46;;;;;;;3.83;3.20;;;;;;;;;;4948553;28;20094;-77
2023/06/24 14:09:12;;;;;;;2.55;2.30;;;;;;;;;;4950354;28;20024;-77
2023/06/24 14:11:37;;;;;;;2.20;1.92;;;;;;;;;;4954154;28;20049;-77
2023/06/24 14:14:03;;;;;;;2.88;2.67;;;;;;;;;;4950559;28;20035;-78
2023/06/24 14:16:28;;;;;;;4.07;3.30;;;;;;;;;;4949909;28;20023;-78
2023/06/24 14:18:55;;;;;;;2.47;2.28;;;;;;;;;;4946056;28;20638;-78
2023/06/24 14:21:20;;;;;;;3.38;3.08;;;;;;;;;;4951498;28;20067;-78
2023/06/24 14:23:45;;;;;;;5.00;3.10;;;;;;;;;;4944827;28;20047;-76
2023/06/24 14:26:11;;;;;;;2.50;2.30;;;;;;;;;;4951021;28;20101;-76
2023/06/24 14:28:36;;;;;;;2.72;2.53;;;;;;;;;;4949046;28;20027;-78
2023/06/24 14:31:02;;;;;;;3.47;3.00;;;;;;;;;;4942685;28;20126;-76
2023/06/24 14:33:27;;;;;;;3.25;2.55;;;;;;;;;;4954151;28;20023;-75
2023/06/24 14:35:56;;;;;;;3.25;2.95;;;;;;;;;;4950144;28;20047;-76
2023/06/24 14:38:21;;;;;;;2.25;2.05;;;;;;;;;;4949952;28;20023;-75
2023/06/24 14:40:47;;;;;;;4.45;3.08;;;;;;;;;;4947996;28;20398;-76
2023/06/24 14:43:12;;;;;;;3.15;2.55;;;;;;;;;;4946321;28;20023;-76
2023/06/24 14:45:37;;;;;;;3.78;3.20;;;;;;;;;;4950742;28;20033;-76
2023/06/24 14:48:03;;;;;;;4.75;3.42;;;;;;;;;;4947613;28;20539;-76
2023/06/24 14:50:28;;;;;;;3.65;3.10;;;;;;;;;;4950120;28;20486;-76
2023/06/24 14:52:54;;;;;;;3.80;3.40;;;;;;;;;;4952697;28;20074;-76
2023/06/24 14:55:19;;;;;;;3.47;3.17;;;;;;;;;;4953679;28;20035;-75
2023/06/24 14:57:44;;;;;;;3.28;2.97;;;;;;;;;;4953104;28;20062;-76
2023/06/24 15:00:11;;;;;;;3.15;2.85;;;;;;;;;;4949092;28;20035;-78
2023/06/24 15:02:36;;;;;;;2.40;2.20;;;;;;;;;;4946879;28;20026;-78
2023/06/24 15:05:02;;;;;;;3.85;3.10;;;;;;;;;;4952017;28;20039;-78
2023/06/24 15:07:28;;;;;;;2.88;2.67;;;;;;;;;;4952317;28;20392;-78
2023/06/24 15:09:53;;;;;;;4.05;3.30;;;;;;;;;;4950947;28;20029;-78
2023/06/24 15:12:19;;;;;;;2.97;2.70;;;;;;;;;;4947633;28;20035;-78
2023/06/24 15:14:46;;;;;;;3.22;2.67;;;;;;;;;;4950658;28;20379;-78
2023/06/24 15:17:11;;;;;;;3.58;3.28;;;;;;;;;;4956302;28;20026;-76
2023/06/24 15:19:37;;;;;;;2.65;2.45;;;;;;;;;;4947293;28;20035;-76
2023/06/24 15:22:02;;;;;;;4.28;3.47;;;;;;;;;;4937086;28;20030;-76
2023/06/24 15:24:28;;;;;;;2.50;2.30;;;;;;;;;;4946927;28;20374;-78
2023/06/24 15:26:53;;;;;;;2.60;2.40;;;;;;;;;;4949033;28;20486;-76
2023/06/24 15:29:18;;;;;;;3.08;2.78;;;;;;;;;;4944935;28;20034;-76
2023/06/24 15:31:44;;;;;;;3.45;3.05;;;;;;;;;;4950825;28;20711;-76
2023/06/24 15:34:11;;;;;;;3.70;3.40;;;;;;;;;;4948871;28;20054;-76
2023/06/24 15:36:36;;;;;;;3.40;3.10;;;;;;;;;;4953144;28;20029;-76
2023/06/24 15:39:01;;;;;;;6.05;3.75;;;;;;;;;;4946479;28;20032;-76
2023/06/24 15:41:27;;;;;;;4.03;3.67;;;;;;;;;;4951699;28;20031;-76
2023/06/24 15:43:52;;;;;;;2.47;2.28;;;;;;;;;;4945085;28;20019;-76
2023/06/24 15:46:17;;;;;;;4.05;3.65;;;;;;;;;;4940033;28;20023;-76
2023/06/24 15:48:43;;;;;;;3.17;2.88;;;;;;;;;;4945213;28;20019;-76
2023/06/24 15:51:08;;;;;;;3.58;3.28;;;;;;;;;;4942782;28;20026;-77
2023/06/24 15:53:34;;;;;;;3.55;2.90;;;;;;;;;;4951374;28;20030;-78
2023/06/24 15:55:59;;;;;;;4.38;3.60;;;;;;;;;;4947208;28;20034;-78
2023/06/24 15:58:25;;;;;;;3.60;3.30;;;;;;;;;;4953482;28;20050;-77
2023/06/24 16:00:50;;;;;;;4.25;3.50;;;;;;;;;;4952570;28;20023;-78